ADDS TAF Data INFO
IDs: Format: Raw Decoded Include METARs

Data at: 1220 UTC 28 Jul 2016

Region: TOP
KATL 281120Z 2812/2918 25008KT P6SM SCT015
  TEMPO 2812/2814 BKN015
  FM281500 25010G18KT P6SM BKN030
  FM281800 26012G20KT P6SM VCSH BKN050
  FM290100 26007KT P6SM SCT050 BKN100
  FM290600 26006KT P6SM SCT250


KBOS 281127Z 2812/2918 VRB03KT P6SM FEW250
  FM281400 18004KT P6SM FEW250
  FM281600 11006KT P6SM SCT050
  FM281800 11011KT P6SM SCT050
  FM282100 18007KT P6SM SCT045
  FM290600 VRB03KT P6SM BKN080
  FM290800 VRB03KT P6SM VCSH OVC070
  FM291200 VRB03KT 5SM -RA BR OVC060


KBWI 281124Z 2812/2918 00000KT P6SM BKN130
  FM281800 VRB03KT P6SM TSRA BKN040CB
  FM290000 00000KT 6SM SHRA VCTS OVC050CB
  FM290600 13005KT 5SM SHRA VCTS OVC070CB
  FM290900 19005KT 5SM SHRA VCTS BKN060CB
  FM291100 27005KT 5SM SHRA VCTS OVC050CB
  FM291200 29005KT P6SM -SHRA VCTS OVC040CB
  FM291500 32010KT P6SM -SHRA VCTS OVC070CB


KCLE 281139Z 2812/2918 20003KT P6SM SCT150 BKN250
  FM281600 02008KT P6SM SCT060 BKN200
  FM290200 VRB03KT P6SM BKN180


KCLT 281121Z 2812/2912 25005KT P6SM SCT250
  FM281700 23011G19KT P6SM SCT060 SCT250
  FM282300 23008KT P6SM SCT250
  FM290100 21008KT P6SM FEW050
  FM291100 25007KT P6SM SCT080


KCVG 281137Z 2812/2918 VRB04KT 4SM -SHRA BR VCTS BKN025CB OVC070
  TEMPO 2812/2813 2SM -TSRA BR
  FM281300 22004KT P6SM -RA VCTS BKN035CB OVC070
  FM281400 VRB04KT 4SM -SHRA BR VCTS BKN035CB OVC070
  TEMPO 2814/2816 2SM -TSRA BR OVC025CB
  FM281600 22004KT P6SM VCTS BKN040CB BKN150
  FM290100 VRB03KT P6SM SCT040 BKN150
  FM290800 VRB03KT 5SM BR BKN150
  FM291200 22004KT P6SM BKN150


KDCA 281124Z 2812/2912 00000KT P6SM BKN120
  FM281800 00000KT P6SM TSRA BKN040CB
  FM290000 00000KT 5SM SHRA VCTS OVC070CB


KDEN 281138Z 2812/2918 24009KT P6SM SCT120
  FM281500 32007KT P6SM SCT120
  FM281800 03012KT P6SM FEW080 SCT140
  FM282200 06014G22KT P6SM SCT080 BKN140
  PROB30 2823/2903 VRB20G35KT -TSRA BKN070CB
  FM290300 09014G22KT P6SM VCTS SCT070CB BKN120
  FM290600 17010KT P6SM SCT070 BKN120
  FM291200 22010KT P6SM SCT020 SCT120
  FM291600 09008KT P6SM SCT120


KDFW 281137Z 2812/2918 19008KT P6SM SCT150
  FM281400 19010KT P6SM VCSH SCT050 BKN150
  FM282200 17007KT P6SM SCT060 BKN120


KDTW 281120Z 2812/2918 03005KT P6SM BKN250
  FM281400 05008KT P6SM SCT060 BKN200
  FM281900 07009KT P6SM SCT060 BKN120
  FM290100 01008KT P6SM SCT060 BKN080 OVC150
  FM291400 02009KT P6SM SCT120 BKN200


KEWR 281141Z 2812/2918 VRB04KT P6SM FEW250
  FM281600 18005KT P6SM FEW070 BKN200
  FM281800 15010KT P6SM SCT070 BKN200
  FM282200 17008KT P6SM FEW070 BKN150
  FM290100 18005KT P6SM VCSH FEW080 BKN150
  FM290700 VRB04KT 6SM -SHRA SCT060 BKN120
  FM291000 05006KT 5SM -SHRA BKN050
  FM291400 04004KT 2SM SHRA BR OVC025
  PROB30 2914/2918 TSRA OVC025CB


KFLL 281138Z 2812/2912 12007KT P6SM VCSH FEW025 SCT100 SCT250
  FM281500 11013G19KT P6SM VCSH SCT030 SCT060
  FM282000 12012KT P6SM SCT030 SCT250
  FM290300 12006KT P6SM FEW250


KIAD 281124Z 2812/2918 00000KT P6SM BKN120
  FM281800 00000KT P6SM TSRA BKN050CB
  FM290000 00000KT 5SM SHRA VCTS OVC070CB
  FM291200 31006KT P6SM -SHRA VCTS OVC040CB
  FM291300 32008KT P6SM -SHRA VCTS OVC030CB
  FM291600 33011KT P6SM -SHRA VCTS BKN040CB


KIAH 281122Z 2812/2918 VRB03KT P6SM SCT015 BKN200
  FM281500 19007KT P6SM VCSH BKN035
  FM281800 18008KT P6SM VCTS BKN040CB
  FM282200 16006KT P6SM BKN050 BKN150
  FM290100 VRB04KT P6SM BKN250
  FM291000 VRB03KT P6SM SCT020


TAF COR KJFK 281200Z 2812/2918 19005KT 6SM BR SCT250
  FM281500 18007KT P6SM BKN200
  FM281800 17011KT P6SM BKN200
  FM282000 17014KT P6SM BKN200
  FM282300 18010KT P6SM BKN150
  FM290100 18005KT P6SM VCSH FEW080 BKN150
  FM290700 18005KT 6SM -SHRA SCT060 BKN120
  FM291000 12007KT 5SM -SHRA BKN050
  PROB30 2910/2914 2SM TSRA BKN040CB
  FM291400 14010G18KT 2SM SHRA BR OVC025
  PROB30 2914/2918 1SM +TSRA OVC015CB


KLAS 281120Z 2812/2912 VRB05KT P6SM FEW150
  FM281900 14007KT P6SM SCT120 SCT250
  FM290300 21008KT P6SM FEW120 BKN250


KLAX 281120Z 2812/2918 29005KT P6SM SKC
  FM281300 VRB03KT 3SM BR BKN005
  FM281600 23005KT 6SM BR SCT008
  FM281900 26012KT P6SM FEW010 SCT180
  FM290400 25006KT P6SM SKC
  FM290900 VRB03KT P6SM BKN007
  FM291600 23006KT P6SM SKC


KLGA 281141Z 2812/2912 VRB04KT P6SM SCT250
  FM281700 15008KT P6SM BKN200
  FM282000 17012KT P6SM BKN200
  FM282300 18008KT P6SM BKN150
  FM290100 17005KT P6SM VCSH FEW080 BKN150
  FM290700 VRB04KT 6SM -SHRA SCT060 BKN120
  FM291000 05005KT 5SM -SHRA BKN050
  PROB30 2910/2912 2SM TSRA BKN040CB


KMCO 281125Z 2812/2912 16004KT P6SM SKC
  FM281600 18008KT P6SM SCT050
  FM290200 15003KT P6SM SKC


KMDW 281123Z 2812/2912 06004KT P6SM SCT060 BKN250
  FM281700 06007KT P6SM VCSH SCT030 BKN080
  TEMPO 2819/2823 2SM -TSRA BKN040CB
  FM290100 03009KT P6SM SCT030 BKN050


KMEM 281133Z 2812/2912 25005KT 6SM -SHRA BR SCT008 OVC015
  TEMPO 2812/2815 4SM RA SCT010 BKN025
  FM281600 25009KT P6SM VCTS SCT025CB BKN035
  FM282000 24008KT P6SM SCT040 BKN060
  FM290100 21005KT P6SM FEW025 BKN200


KMIA 281138Z 2812/2912 10006KT P6SM VCSH FEW025 SCT040 SCT120
  FM281400 10011KT P6SM VCSH SCT035 SCT060 BKN120
  FM281800 11012KT P6SM VCSH SCT030 SCT250
  FM290300 10006KT P6SM FEW250


KMSP 281120Z 2812/2918 01009KT P6SM OVC008
  FM281600 03009KT P6SM OVC013
  FM281800 03010KT P6SM OVC020
  FM282200 04005KT P6SM SCT025 OVC050


KORD 281123Z 2812/2918 06004KT P6SM SCT060 BKN250
  FM281700 06007KT P6SM VCSH SCT030 BKN080
  TEMPO 2821/2823 2SM TSRA BKN040CB
  FM290100 03009KT P6SM SCT030 BKN080


KPDX 281127Z 2812/2912 33004KT P6SM SKC
  FM281300 33003KT P6SM SCT007
  FM281700 30008KT P6SM SKC
  FM290000 31011G18KT P6SM SKC
  FM290600 31005KT P6SM SKC


KPHL 281145Z 2812/2918 VRB03KT P6SM SCT100 SCT250
  FM281400 16004KT P6SM SCT250
  FM281700 22006KT P6SM SCT050
  TEMPO 2820/2822 4SM SHRA BKN035
  FM282300 20006KT P6SM BKN050
  TEMPO 2903/2906 -SHRA OVC035
  FM290600 09006KT 3SM SHRA BR OVC035
  FM290800 14006KT 2SM +SHRA BR OVC020
  FM291200 32010KT 5SM -SHRA BR OVC035


KPHX 281128Z 2812/2912 13009KT P6SM BKN250
  FM282100 26011KT P6SM SCT250
  FM290300 VRB06KT P6SM SCT150 BKN250


KPIT 281120Z 2812/2918 00000KT P6SM BKN100
  FM281500 VRB03KT P6SM -SHRA BKN060
  FM282300 VRB03KT P6SM VCSH BKN025
  FM290900 VRB03KT P6SM VCSH OVC008
  FM291400 33004KT P6SM VCSH BKN050


KSAN 281124Z 2812/2918 29004KT P6SM SCT009
  TEMPO 2812/2814 BKN009
  FM282000 29010KT P6SM SCT250
  FM290200 VRB03KT P6SM FEW010 SCT250
  FM290800 VRB03KT P6SM BKN010
  FM291500 VRB04KT P6SM SCT012


KSEA 281120Z 2812/2918 36006KT P6SM SKC

KSFO 281120Z 2812/2918 29010KT P6SM SCT005 SCT160
  FM282100 29015G20KT P6SM FEW010 SCT160
  FM290400 29010KT P6SM FEW010 SCT120
  FM290900 28006KT P6SM SCT010 SCT120


KSLC 281120Z 2812/2918 15008KT P6SM SKC
  FM281800 33008KT P6SM SKC
  FM290300 15007KT P6SM SKC


KSTL 281128Z 2812/2918 VRB03KT P6SM SCT200
  FM281500 32006KT P6SM SCT050
  FM282100 32006KT P6SM VCTS SCT050CB
  FM290200 31004KT P6SM SCT150


KTPA 281120Z 2812/2912 VRB03KT P6SM FEW250
  FM281500 22006KT P6SM SCT030
  FM282000 28007KT P6SM VCTS SCT040CB